WIII Airport Information

Runway Information
Runway 07L Length 11812 ft width 197 ft
Elevation 29 ft Threshold 0 ft Heading 68
Runway 25R Length 11812 ft Width 197 ft
Elevation 21 ft Threshold 0 ft Heading 248
Runway 07R Length 12008 ft width 197 ft
Elevation 34 ft Threshold 0 ft Heading 68
Runway 25L Length 12008 ft Width 197 ft
Elevation 27 ft Threshold 0 ft Heading 248
Airport Frequencies
Type APP Name JAKARTA AP Frequency 119.75 MHZ
Type ARR Name JAKARTA AR Frequency 125.45 MHZ
Type ATIS Name ATIS Frequency 126.85 MHZ
Type CLD Name CLNC DEL Frequency 121.95 MHZ
Type FSS Name JAKARTA CE Frequency 129.7 MHZ
Type GND Name GND Frequency 121.6 MHZ
Type INFO Name PABELOKAN Frequency 129.8 MHZ
Type TWR Name TWR Frequency 118.75 MHZ
Airport Navaids
Type VOR-DME Name Cengkareng Frequency 113600 KHZ
Type VOR-DME Name Jakarta Frequency 114600 KHZ
Airport Weather Information & NOTAM
ADDS - METARS form results

(2350 UTC 13 April 2021)
Data provider http://aviationweather.gov/metar/data/
 
METAR text: WIII 132330Z VRB03KT 6000 FEW020 25/24 Q1011 NOSIG
Conditions at: WIII (SOEKARNO-HATTA I, ID) observed 2330 UTC 13 April 2021
Temperature: 25.0°C (77°F)
Dewpoint: 24.0°C (75°F) [RH = 94%]
Pressure (altimeter): 29.85 inches Hg (1011.0 mb)
Winds: variable direction winds at 3 MPH (3 knots; 1.5 m/s)
Visibility: 4 miles ( 6 km)
Ceiling: at least 12,000 feet AGL
Clouds: few clouds at 2000 feet AGL
Weather: no significant weather observed at this time

METAR text: WIII 132300Z 20003KT 5000 HZ FEW022 25/23 Q1011 NOSIG
Conditions at: WIII (SOEKARNO-HATTA I, ID) observed 2300 UTC 13 April 2021
Temperature: 25.0°C (77°F)
Dewpoint: 23.0°C (73°F) [RH = 89%]
Pressure (altimeter): 29.85 inches Hg (1011.0 mb)
Winds: from the SSW (200 degrees) at 3 MPH (3 knots; 1.5 m/s)
Visibility: 3 miles ( 5 km)
Ceiling: at least 12,000 feet AGL
Clouds: few clouds at 2200 feet AGL
Weather: HZ  (haze)

Forecast for: WIII (SOEKARNO-HATTA I, ID)
Text: TAF WIII 132300Z 1400/1506 02012KT 8000 SCT020
Forecast period: 0000 UTC 14 April 2021 to 0600 UTC 15 April 2021
Forecast type: FROM: standard forecast or significant change
Winds: from the NNE (20 degrees) at 14 MPH (12 knots; 6.2 m/s)
Visibility: 5 miles (8 km)
Ceiling: at least 12,000 feet AGL
Clouds: scattered clouds at 2000 feet AGL
Weather: no significant weather forecast for this period
Text: TEMPO 1408/1412 4000 -TSRA FEW015CB BKN018
Forecast period: 0800 to 1200 UTC 14 April 2021
Forecast type: TEMPORARY: The following changes expected for less than half the time period
Visibility: 2.49 miles (4.01 km)
Ceiling: 1800 feet AGL
Clouds: few clouds at 1500 feet AGL
broken clouds at 1800 feet AGL
Weather: -TSRA  (light rain associated with thunderstorm(s))